Time;durP1;ratioP1;P1;durP2;ratioP2;P2;SDS_P1;SDS_P2;PMS_P1;PMS_P2;Temp;Humidity;BMP_temperature;BMP_pressure;BME280_temperature;BME280_humidity;BME280_pressure;Samples;Min_cycle;Max_cycle;Signal;HPM_P1;HPM_P2
2023/11/11 00:00:02;;;;;;;1.47;1.37;;;8.10;99.90;;;;;;5085667;28;20664;-66
2023/11/11 00:02:29;;;;;;;1.43;1.30;;;8.00;99.90;;;;;;5085828;28;20202;-67
2023/11/11 00:04:57;;;;;;;1.00;1.00;;;8.00;99.90;;;;;;5085689;28;20211;-66
2023/11/11 00:07:25;;;;;;;1.67;1.37;;;8.00;99.90;;;;;;5085779;28;20304;-66
2023/11/11 00:09:53;;;;;;;1.77;1.67;;;8.00;99.90;;;;;;5085466;28;20199;-67
2023/11/11 00:12:20;;;;;;;2.23;2.00;;;8.00;99.90;;;;;;5085963;28;20786;-67
2023/11/11 00:14:47;;;;;;;2.00;1.60;;;8.00;99.90;;;;;;5085611;28;20227;-67
2023/11/11 00:17:14;;;;;;;2.37;1.60;;;8.00;99.90;;;;;;5085356;28;20736;-66
2023/11/11 00:19:42;;;;;;;1.50;1.40;;;8.00;99.90;;;;;;5085317;28;20234;-66
2023/11/11 00:22:10;;;;;;;1.23;1.23;;;8.00;99.90;;;;;;5084535;28;20211;-66
2023/11/11 00:24:37;;;;;;;1.70;1.60;;;7.90;99.90;;;;;;5081023;28;20662;-66
2023/11/11 00:27:06;;;;;;;2.13;1.30;;;8.00;99.90;;;;;;5084747;28;20256;-66
2023/11/11 00:29:33;;;;;;;1.47;1.37;;;7.90;99.90;;;;;;5085410;28;20298;-66
2023/11/11 00:32:00;;;;;;;1.60;1.50;;;7.90;99.90;;;;;;5084824;28;20748;-66
2023/11/11 00:34:27;;;;;;;1.60;1.50;;;7.90;99.90;;;;;;5085114;28;20286;-66
2023/11/11 00:36:53;;;;;;;1.40;1.30;;;7.90;99.90;;;;;;5085715;28;20716;-66
2023/11/11 00:39:21;;;;;;;2.07;1.30;;;7.90;99.90;;;;;;5084939;28;20199;-67
2023/11/11 00:41:48;;;;;;;3.10;1.40;;;7.90;99.90;;;;;;5085090;28;20248;-66
2023/11/11 00:44:18;;;;;;;1.53;1.47;;;7.90;99.90;;;;;;5085465;28;20317;-67
2023/11/11 00:46:44;;;;;;;1.43;1.30;;;7.90;99.90;;;;;;5085166;28;20584;-67
2023/11/11 00:49:12;;;;;;;1.60;1.50;;;7.90;99.90;;;;;;5081725;28;20231;-67
2023/11/11 00:51:39;;;;;;;4.00;1.70;;;7.90;99.90;;;;;;5065152;28;20302;-66
2023/11/11 00:54:08;;;;;;;1.20;1.10;;;7.90;99.90;;;;;;5065036;28;20218;-67
2023/11/11 00:56:34;;;;;;;1.70;1.50;;;7.90;99.90;;;;;;5083641;28;20292;-66
2023/11/11 00:59:01;;;;;;;1.87;1.60;;;7.90;99.90;;;;;;5085173;28;20738;-66
2023/11/11 01:01:29;;;;;;;1.77;1.33;;;7.80;99.90;;;;;;5084884;28;20297;-67
2023/11/11 01:03:56;;;;;;;1.30;1.20;;;7.80;99.90;;;;;;5085455;28;20241;-66
2023/11/11 01:06:23;;;;;;;2.10;1.33;;;7.80;99.90;;;;;;5084495;28;20198;-66
2023/11/11 01:08:50;;;;;;;2.20;1.33;;;7.80;99.90;;;;;;5085019;28;20289;-66
2023/11/11 01:11:19;;;;;;;2.43;1.30;;;7.80;99.90;;;;;;5084803;28;20309;-66
2023/11/11 01:13:46;;;;;;;1.40;1.17;;;7.80;99.90;;;;;;5084722;28;20210;-66
2023/11/11 01:16:13;;;;;;;1.90;1.50;;;7.80;99.90;;;;;;5084338;28;20656;-66
2023/11/11 01:18:41;;;;;;;4.43;1.60;;;7.80;99.90;;;;;;5084876;28;20275;-66
2023/11/11 01:21:08;;;;;;;1.40;1.30;;;7.70;99.90;;;;;;5084406;28;20279;-67
2023/11/11 01:23:36;;;;;;;1.77;1.60;;;7.70;99.90;;;;;;5084649;28;20283;-67
2023/11/11 01:26:04;;;;;;;1.37;1.33;;;7.70;99.90;;;;;;5084403;28;20214;-67
2023/11/11 01:28:31;;;;;;;1.13;1.10;;;7.60;99.90;;;;;;5084633;28;20310;-67
2023/11/11 01:30:58;;;;;;;1.60;1.50;;;7.70;99.90;;;;;;5085064;28;20281;-67
2023/11/11 01:33:25;;;;;;;1.43;1.33;;;7.60;99.90;;;;;;5084942;28;20210;-67
2023/11/11 01:35:53;;;;;;;3.17;1.53;;;7.60;99.90;;;;;;5084682;28;20268;-66
2023/11/11 01:38:20;;;;;;;5.10;1.73;;;7.60;99.90;;;;;;5087930;28;20732;-67
2023/11/11 01:40:47;;;;;;;1.80;1.40;;;7.60;99.90;;;;;;5088565;28;20214;-67
2023/11/11 01:43:16;;;;;;;1.70;1.60;;;7.50;99.90;;;;;;5088900;28;20213;-66
2023/11/11 01:45:43;;;;;;;3.10;1.70;;;7.50;99.90;;;;;;5088871;28;20295;-67
2023/11/11 01:48:11;;;;;;;3.13;1.43;;;7.50;99.90;;;;;;5088812;28;20208;-66
2023/11/11 01:50:38;;;;;;;1.73;1.30;;;7.50;99.90;;;;;;5072869;28;20216;-67
2023/11/11 01:53:07;;;;;;;1.40;1.30;;;7.40;99.90;;;;;;5068177;28;20302;-67
2023/11/11 01:55:34;;;;;;;1.33;1.20;;;7.30;99.90;;;;;;5068533;28;20204;-66
2023/11/11 01:58:02;;;;;;;2.77;1.37;;;7.30;99.90;;;;;;5068323;28;20203;-67
2023/11/11 02:00:32;;;;;;;2.30;1.20;;;7.30;99.90;;;;;;5068091;28;20293;-67
2023/11/11 02:02:59;;;;;;;1.50;1.40;;;7.30;99.90;;;;;;5076405;28;20213;-67
2023/11/11 02:05:26;;;;;;;1.57;1.47;;;7.30;99.90;;;;;;5087946;28;20241;-67
2023/11/11 02:07:53;;;;;;;1.93;1.40;;;7.30;99.90;;;;;;5087994;28;21019;-67
2023/11/11 02:10:21;;;;;;;1.70;1.60;;;7.30;99.90;;;;;;5088261;28;20207;-67
2023/11/11 02:12:49;;;;;;;1.60;1.50;;;7.30;99.90;;;;;;5087869;28;20657;-67
2023/11/11 02:15:16;;;;;;;1.60;1.50;;;7.30;99.90;;;;;;5087879;28;20725;-67
2023/11/11 02:17:43;;;;;;;3.00;1.60;;;7.30;99.90;;;;;;5088417;28;20277;-67
2023/11/11 02:20:12;;;;;;;1.50;1.40;;;7.30;99.90;;;;;;5087750;28;20309;-66
2023/11/11 02:22:39;;;;;;;2.57;1.70;;;7.30;99.90;;;;;;5088279;28;20246;-66
2023/11/11 02:25:09;;;;;;;2.23;1.67;;;7.30;99.90;;;;;;5088174;28;20265;-66
2023/11/11 02:27:36;;;;;;;1.33;1.23;;;7.30;99.90;;;;;;5088125;28;20203;-66
2023/11/11 02:30:10;;;;;;;1.37;1.20;;;7.30;99.90;;;;;;5087691;28;20202;-67
2023/11/11 02:32:37;;;;;;;2.93;1.33;;;7.30;99.90;;;;;;5088259;28;20421;-67
2023/11/11 02:35:05;;;;;;;1.57;1.47;;;7.30;99.90;;;;;;5087881;28;20298;-68
2023/11/11 02:37:32;;;;;;;1.23;1.23;;;7.30;99.90;;;;;;5087768;28;20636;-67
2023/11/11 02:39:59;;;;;;;1.50;1.40;;;7.30;99.90;;;;;;5087704;28;20293;-67
2023/11/11 02:42:27;;;;;;;1.83;1.73;;;7.30;99.90;;;;;;5087691;28;20287;-67
2023/11/11 02:44:54;;;;;;;2.10;1.40;;;7.30;99.90;;;;;;5087757;28;20455;-67
2023/11/11 02:47:20;;;;;;;1.90;1.57;;;7.30;99.90;;;;;;5087727;28;20285;-67
2023/11/11 02:49:47;;;;;;;1.50;1.40;;;7.30;99.90;;;;;;5086823;28;20603;-67
2023/11/11 02:52:13;;;;;;;1.30;1.20;;;7.20;99.90;;;;;;5087712;28;20250;-67
2023/11/11 02:54:40;;;;;;;1.70;1.60;;;7.20;99.90;;;;;;5087845;28;20229;-67
2023/11/11 02:57:06;;;;;;;2.30;1.47;;;7.20;99.90;;;;;;5087447;28;20268;-66
2023/11/11 02:59:35;;;;;;;1.60;1.50;;;7.20;99.90;;;;;;5087911;28;20207;-66
2023/11/11 03:02:02;;;;;;;1.57;1.47;;;7.10;99.90;;;;;;5087511;28;20246;-66
2023/11/11 03:04:29;;;;;;;1.67;1.57;;;7.10;99.90;;;;;;5087704;28;20231;-66
2023/11/11 03:06:56;;;;;;;1.60;1.50;;;7.10;99.90;;;;;;5087346;28;20245;-66
2023/11/11 03:09:23;;;;;;;3.10;1.90;;;7.00;99.90;;;;;;5087210;28;20728;-67
2023/11/11 03:11:50;;;;;;;1.90;1.80;;;7.10;99.90;;;;;;5087390;28;20242;-67
2023/11/11 03:14:19;;;;;;;1.60;1.50;;;7.00;99.90;;;;;;5087003;28;20217;-66
2023/11/11 03:16:47;;;;;;;1.97;1.50;;;7.00;99.90;;;;;;5086799;28;20230;-66
2023/11/11 03:19:15;;;;;;;1.40;1.30;;;7.00;99.90;;;;;;5086789;28;20337;-67
2023/11/11 03:21:42;;;;;;;1.50;1.40;;;7.00;99.90;;;;;;5087023;28;20251;-66
2023/11/11 03:24:09;;;;;;;2.23;1.50;;;7.00;99.90;;;;;;5086562;28;20310;-67
2023/11/11 03:26:36;;;;;;;1.60;1.50;;;7.00;99.90;;;;;;5087088;28;20210;-66
2023/11/11 03:29:03;;;;;;;1.70;1.43;;;7.00;99.90;;;;;;5086902;28;20325;-66
2023/11/11 03:31:30;;;;;;;1.80;1.70;;;7.00;99.90;;;;;;5086696;28;20222;-67
2023/11/11 03:33:58;;;;;;;3.83;1.83;;;7.00;99.90;;;;;;5086902;28;20290;-66
2023/11/11 03:36:27;;;;;;;2.20;1.90;;;7.00;99.90;;;;;;5086584;28;20607;-66
2023/11/11 03:38:54;;;;;;;2.87;1.60;;;6.90;99.90;;;;;;5086615;28;20195;-67
2023/11/11 03:41:21;;;;;;;2.37;1.80;;;7.00;99.90;;;;;;5086633;28;20683;-67
2023/11/11 03:43:48;;;;;;;2.00;1.60;;;6.90;99.90;;;;;;5086311;28;20605;-66
2023/11/11 03:46:14;;;;;;;2.13;1.60;;;6.90;99.90;;;;;;5086244;28;20210;-66
2023/11/11 03:48:41;;;;;;;2.20;1.40;;;6.90;99.90;;;;;;5086508;28;20210;-66
2023/11/11 03:51:09;;;;;;;2.30;1.57;;;6.90;99.90;;;;;;5086351;28;20293;-67
2023/11/11 03:53:36;;;;;;;1.50;1.40;;;6.90;99.90;;;;;;5091821;28;20202;-67
2023/11/11 03:56:04;;;;;;;1.60;1.50;;;6.80;99.90;;;;;;5085922;28;20238;-66
2023/11/11 03:58:31;;;;;;;1.70;1.60;;;6.90;99.90;;;;;;5086013;28;20264;-66
2023/11/11 04:00:58;;;;;;;2.10;1.60;;;6.90;99.90;;;;;;5085709;28;20726;-66
2023/11/11 04:03:25;;;;;;;1.63;1.53;;;6.90;99.90;;;;;;5086376;28;20810;-66
2023/11/11 04:05:52;;;;;;;2.70;1.53;;;6.90;99.90;;;;;;5085691;28;20266;-66
2023/11/11 04:08:22;;;;;;;2.63;1.67;;;6.90;99.90;;;;;;5085566;28;20234;-66
2023/11/11 04:10:49;;;;;;;1.97;1.33;;;6.90;99.90;;;;;;5086013;28;20213;-66
2023/11/11 04:13:16;;;;;;;1.93;1.57;;;6.90;99.90;;;;;;5085629;28;20912;-66
2023/11/11 04:15:42;;;;;;;1.90;1.70;;;6.90;99.90;;;;;;5085610;28;20249;-66
2023/11/11 04:18:09;;;;;;;3.73;1.60;;;6.90;99.90;;;;;;5085655;28;20657;-66
2023/11/11 04:20:36;;;;;;;2.40;1.40;;;6.90;99.90;;;;;;5085496;28;20261;-66
2023/11/11 04:23:03;;;;;;;1.80;1.70;;;6.90;99.90;;;;;;5085484;28;20298;-66
2023/11/11 04:25:31;;;;;;;1.87;1.50;;;6.90;99.90;;;;;;5085805;28;20234;-67
2023/11/11 04:27:58;;;;;;;8.43;2.13;;;6.90;99.90;;;;;;5085805;28;20213;-66
2023/11/11 04:30:25;;;;;;;1.70;1.57;;;6.90;99.90;;;;;;5085466;28;20199;-67
2023/11/11 04:32:52;;;;;;;1.50;1.40;;;6.90;99.90;;;;;;5086129;28;20294;-66
2023/11/11 04:35:19;;;;;;;1.53;1.43;;;6.90;99.90;;;;;;5085286;28;20225;-67
2023/11/11 04:37:46;;;;;;;1.70;1.60;;;6.90;99.90;;;;;;5085314;28;20199;-66
2023/11/11 04:40:14;;;;;;;3.00;1.50;;;6.90;99.90;;;;;;5085455;28;20212;-66
2023/11/11 04:42:42;;;;;;;2.30;1.57;;;6.90;99.90;;;;;;5085544;28;20214;-66
2023/11/11 04:45:10;;;;;;;2.20;1.27;;;6.90;99.90;;;;;;5085400;28;20258;-67
2023/11/11 04:47:36;;;;;;;1.93;1.57;;;6.90;99.90;;;;;;5085274;28;20202;-66
2023/11/11 04:50:04;;;;;;;1.60;1.50;;;7.00;99.90;;;;;;5085239;28;20252;-67
2023/11/11 04:52:31;;;;;;;4.00;1.60;;;7.00;99.90;;;;;;5085980;28;20215;-67
2023/11/11 04:54:58;;;;;;;2.00;1.50;;;7.00;99.90;;;;;;5085713;28;20203;-67
2023/11/11 04:57:25;;;;;;;2.90;1.77;;;7.00;99.90;;;;;;5085688;28;20210;-67
2023/11/11 04:59:53;;;;;;;1.60;1.50;;;7.00;99.90;;;;;;5085904;28;20213;-66
2023/11/11 05:02:20;;;;;;;1.67;1.43;;;7.00;99.90;;;;;;5085724;28;20238;-66
2023/11/11 05:04:47;;;;;;;3.80;1.63;;;7.00;99.90;;;;;;5085511;28;20318;-66
2023/11/11 05:07:14;;;;;;;1.60;1.50;;;7.00;99.90;;;;;;5085002;28;20245;-66
2023/11/11 05:09:41;;;;;;;1.40;1.30;;;7.00;99.90;;;;;;5084834;28;20744;-66
2023/11/11 05:12:08;;;;;;;2.20;1.40;;;7.00;99.90;;;;;;5084744;28;20284;-66
2023/11/11 05:14:36;;;;;;;2.63;1.40;;;7.00;99.90;;;;;;5085370;28;20697;-66
2023/11/11 05:17:07;;;;;;;2.03;1.30;;;6.90;99.90;;;;;;5085503;28;20391;-67
2023/11/11 05:19:34;;;;;;;1.60;1.50;;;7.00;99.90;;;;;;5091841;28;20237;-68
2023/11/11 05:22:02;;;;;;;2.43;1.50;;;7.00;99.90;;;;;;5105617;28;20208;-66
2023/11/11 05:24:30;;;;;;;1.90;1.80;;;7.00;99.90;;;;;;5105962;28;20261;-67
2023/11/11 05:26:57;;;;;;;1.70;1.60;;;6.90;99.90;;;;;;5106035;28;20284;-66
2023/11/11 05:29:23;;;;;;;3.00;1.63;;;6.90;99.90;;;;;;5105797;28;20271;-67
2023/11/11 05:31:51;;;;;;;1.53;1.30;;;6.90;99.90;;;;;;5101548;28;20225;-67
2023/11/11 05:34:19;;;;;;;3.43;1.67;;;6.90;99.90;;;;;;5085635;28;20244;-67
2023/11/11 05:36:46;;;;;;;2.43;1.33;;;6.90;99.90;;;;;;5085282;28;20285;-66
2023/11/11 05:39:14;;;;;;;1.60;1.50;;;6.90;99.90;;;;;;5085064;28;20241;-66
2023/11/11 05:41:41;;;;;;;1.70;1.60;;;6.90;99.90;;;;;;5085218;28;20557;-67
2023/11/11 05:44:08;;;;;;;1.70;1.57;;;6.90;99.90;;;;;;5085011;28;20289;-67
2023/11/11 05:46:36;;;;;;;2.63;1.30;;;6.90;99.90;;;;;;5084796;28;20270;-67
2023/11/11 05:49:03;;;;;;;1.43;1.33;;;6.90;99.90;;;;;;5084893;28;20211;-67
2023/11/11 05:51:31;;;;;;;1.60;1.50;;;6.90;99.90;;;;;;5084790;28;20226;-67
2023/11/11 05:53:58;;;;;;;2.03;1.67;;;6.90;99.90;;;;;;5085199;28;20207;-67
2023/11/11 05:56:25;;;;;;;1.70;1.53;;;6.80;99.90;;;;;;5084630;28;20581;-66
2023/11/11 05:58:52;;;;;;;2.17;1.77;;;6.90;99.90;;;;;;5085002;28;20234;-67
2023/11/11 06:01:19;;;;;;;1.73;1.47;;;6.90;99.90;;;;;;5084013;28;20387;-66
2023/11/11 06:03:46;;;;;;;2.03;1.40;;;6.80;99.90;;;;;;5084168;28;20238;-66
2023/11/11 06:06:13;;;;;;;2.67;1.60;;;6.80;99.90;;;;;;5083905;28;20325;-66
2023/11/11 06:08:41;;;;;;;1.97;1.60;;;6.80;99.90;;;;;;5084258;28;20261;-66
2023/11/11 06:11:09;;;;;;;1.50;1.40;;;6.80;99.90;;;;;;5084667;28;20345;-66
2023/11/11 06:13:36;;;;;;;1.70;1.40;;;6.80;99.90;;;;;;5084475;28;20203;-66
2023/11/11 06:16:04;;;;;;;1.60;1.50;;;6.80;99.90;;;;;;5083947;28;20199;-66
2023/11/11 06:18:31;;;;;;;2.10;1.37;;;6.80;99.90;;;;;;5084357;28;20656;-66
2023/11/11 06:20:59;;;;;;;2.53;1.80;;;6.80;99.90;;;;;;5084656;28;20246;-66
2023/11/11 06:23:26;;;;;;;2.60;1.53;;;6.80;99.90;;;;;;5086665;28;20286;-66
2023/11/11 06:25:54;;;;;;;1.60;1.50;;;6.80;99.90;;;;;;5088162;28;20338;-66
2023/11/11 06:28:21;;;;;;;2.33;1.43;;;6.80;99.90;;;;;;5087989;28;20207;-66
2023/11/11 06:30:48;;;;;;;2.30;1.77;;;6.80;99.90;;;;;;5087981;28;20282;-66
2023/11/11 06:33:18;;;;;;;2.53;1.80;;;6.70;99.90;;;;;;5088022;28;20218;-67
2023/11/11 06:35:45;;;;;;;2.90;1.50;;;6.80;99.90;;;;;;5087817;28;20199;-66
2023/11/11 06:38:12;;;;;;;2.10;1.20;;;6.70;99.90;;;;;;5087851;28;20209;-66
2023/11/11 06:40:39;;;;;;;1.63;1.17;;;6.70;99.90;;;;;;5088035;28;20213;-67
2023/11/11 06:43:07;;;;;;;1.50;1.40;;;6.70;99.90;;;;;;5087578;28;20313;-67
2023/11/11 06:45:34;;;;;;;1.57;1.47;;;6.70;99.90;;;;;;5087603;28;20238;-66
2023/11/11 06:48:01;;;;;;;1.97;1.77;;;6.70;99.90;;;;;;5087735;28;20317;-66
2023/11/11 06:50:28;;;;;;;1.50;1.40;;;6.70;99.90;;;;;;5101918;28;20293;-66
2023/11/11 06:52:55;;;;;;;4.27;1.67;;;6.70;99.90;;;;;;5105362;28;20241;-67
2023/11/11 06:55:22;;;;;;;1.73;1.63;;;6.70;99.90;;;;;;5086764;28;20688;-67
2023/11/11 06:57:49;;;;;;;2.40;1.50;;;6.70;99.90;;;;;;5087548;28;20295;-66
2023/11/11 07:00:18;;;;;;;1.90;1.70;;;6.70;99.90;;;;;;5086301;28;20317;-66
2023/11/11 07:02:47;;;;;;;1.77;1.67;;;6.80;99.90;;;;;;5086687;28;20240;-66
2023/11/11 07:05:14;;;;;;;1.83;1.70;;;6.80;99.90;;;;;;5087087;28;20239;-66
2023/11/11 07:07:41;;;;;;;2.27;1.80;;;6.80;99.90;;;;;;5086876;28;20242;-67
2023/11/11 07:10:11;;;;;;;2.00;1.80;;;6.80;99.90;;;;;;5086971;28;20297;-66
2023/11/11 07:12:38;;;;;;;2.37;1.87;;;6.90;99.90;;;;;;5086809;28;20289;-66
2023/11/11 07:15:07;;;;;;;2.83;1.63;;;6.80;99.90;;;;;;5087596;28;20215;-66
2023/11/11 07:17:35;;;;;;;1.57;1.40;;;6.90;99.90;;;;;;5086886;28;20213;-67
2023/11/11 07:20:04;;;;;;;1.37;1.33;;;6.90;99.90;;;;;;5086634;28;20275;-66
2023/11/11 07:22:32;;;;;;;2.27;1.60;;;6.90;99.90;;;;;;5086039;28;20206;-66
2023/11/11 07:24:59;;;;;;;2.90;1.93;;;7.00;99.90;;;;;;5086847;28;20207;-66
2023/11/11 07:27:26;;;;;;;1.93;1.73;;;7.00;99.90;;;;;;5086964;28;20260;-66
2023/11/11 07:29:54;;;;;;;1.97;1.80;;;7.00;99.90;;;;;;5087325;28;20290;-67
2023/11/11 07:32:22;;;;;;;2.17;1.40;;;7.10;99.90;;;;;;5086658;28;20317;-67
2023/11/11 07:34:50;;;;;;;7.63;1.80;;;7.10;99.90;;;;;;5086207;28;20260;-67
2023/11/11 07:37:17;;;;;;;1.73;1.63;;;7.10;99.90;;;;;;5086499;28;20732;-66
2023/11/11 07:39:44;;;;;;;1.63;1.53;;;7.10;99.90;;;;;;5086517;28;20207;-66
2023/11/11 07:42:11;;;;;;;1.83;1.73;;;7.20;99.90;;;;;;5086641;28;20211;-66
2023/11/11 07:44:37;;;;;;;2.27;1.70;;;7.20;99.90;;;;;;5086321;28;20285;-66
2023/11/11 07:47:07;;;;;;;2.67;1.40;;;7.20;99.90;;;;;;5086031;28;20252;-66
2023/11/11 07:49:34;;;;;;;2.70;1.97;;;7.20;99.90;;;;;;5086276;28;20440;-66
2023/11/11 07:52:02;;;;;;;4.93;1.60;;;7.30;99.90;;;;;;5086150;28;20206;-66
2023/11/11 07:54:31;;;;;;;2.37;1.47;;;7.30;99.90;;;;;;5089085;28;20213;-66
2023/11/11 07:56:58;;;;;;;3.70;1.50;;;7.40;99.90;;;;;;5085142;28;20242;-66
2023/11/11 07:59:25;;;;;;;2.13;1.93;;;7.40;99.90;;;;;;5096421;28;20293;-66
2023/11/11 08:01:53;;;;;;;1.90;1.80;;;7.40;99.90;;;;;;5106353;28;20790;-66
2023/11/11 08:04:20;;;;;;;1.80;1.70;;;7.40;99.90;;;;;;5106562;28;20299;-67
2023/11/11 08:06:47;;;;;;;2.20;1.70;;;7.40;99.90;;;;;;5106351;28;20659;-67
2023/11/11 08:09:16;;;;;;;1.83;1.73;;;7.40;99.90;;;;;;5104042;28;20233;-67
2023/11/11 08:11:44;;;;;;;2.40;1.70;;;7.40;99.90;;;;;;5097959;28;20560;-67
2023/11/11 08:14:11;;;;;;;4.47;1.67;;;7.40;99.90;;;;;;5106124;28;20734;-67
2023/11/11 08:16:38;;;;;;;1.70;1.60;;;7.50;99.90;;;;;;5106231;28;20306;-67
2023/11/11 08:19:05;;;;;;;3.27;1.73;;;7.50;99.90;;;;;;5090000;28;20610;-67
2023/11/11 08:21:33;;;;;;;3.80;1.60;;;7.50;99.90;;;;;;5085532;28;20260;-67
2023/11/11 08:24:00;;;;;;;1.80;1.70;;;7.60;99.90;;;;;;5085361;28;20701;-67
2023/11/11 08:26:28;;;;;;;1.80;1.70;;;7.60;99.90;;;;;;5085158;28;20323;-67
2023/11/11 08:28:55;;;;;;;2.30;1.50;;;7.60;99.90;;;;;;5085366;28;20210;-66
2023/11/11 08:31:22;;;;;;;2.47;1.67;;;7.70;99.90;;;;;;5085022;28;20199;-67
2023/11/11 08:33:49;;;;;;;1.73;1.43;;;7.70;99.90;;;;;;5085532;28;21098;-67
2023/11/11 08:36:16;;;;;;;2.13;1.70;;;7.70;99.90;;;;;;5085103;28;20874;-66
2023/11/11 08:38:44;;;;;;;2.10;1.70;;;7.70;99.90;;;;;;5085431;28;20203;-66
2023/11/11 08:41:12;;;;;;;20.70;14.27;;;7.70;99.90;;;;;;5085571;28;20305;-66
2023/11/11 08:43:40;;;;;;;4.80;3.90;;;7.70;99.90;;;;;;5085670;28;20206;-67
2023/11/11 08:46:10;;;;;;;1.93;1.47;;;7.80;99.90;;;;;;5084702;28;20227;-67
2023/11/11 08:48:40;;;;;;;1.63;1.53;;;7.80;99.90;;;;;;5085222;28;20203;-67
2023/11/11 08:51:07;;;;;;;2.67;1.90;;;7.70;99.90;;;;;;5085224;28;20209;-67
2023/11/11 08:53:35;;;;;;;2.57;1.80;;;7.80;99.90;;;;;;5085320;28;20209;-66
2023/11/11 08:56:02;;;;;;;1.20;1.20;;;7.80;99.90;;;;;;5085074;28;20215;-67
2023/11/11 08:58:29;;;;;;;2.00;1.27;;;7.80;99.90;;;;;;5085327;28;20301;-66
2023/11/11 09:00:59;;;;;;;2.37;1.63;;;7.80;99.90;;;;;;5085221;28;20209;-66
2023/11/11 09:03:27;;;;;;;1.67;1.47;;;7.80;99.90;;;;;;5084828;28;20202;-66
2023/11/11 09:05:55;;;;;;;1.67;1.53;;;7.90;99.90;;;;;;5084902;28;20234;-66
2023/11/11 09:08:23;;;;;;;1.43;1.23;;;7.90;99.90;;;;;;5084579;28;20536;-66
2023/11/11 09:10:50;;;;;;;1.70;1.60;;;7.90;99.90;;;;;;5085237;28;20214;-67
2023/11/11 09:13:20;;;;;;;1.83;1.57;;;7.90;99.90;;;;;;5084843;28;20213;-67
2023/11/11 09:15:47;;;;;;;1.87;1.50;;;7.90;99.90;;;;;;5084894;28;20237;-66
2023/11/11 09:18:16;;;;;;;3.23;1.50;;;8.00;99.90;;;;;;5084414;28;20271;-66
2023/11/11 09:20:42;;;;;;;2.73;1.50;;;8.00;99.90;;;;;;5084548;28;20252;-67
2023/11/11 09:23:10;;;;;;;1.57;1.40;;;8.10;99.90;;;;;;5084921;28;20289;-67
2023/11/11 09:25:37;;;;;;;2.03;1.40;;;8.10;99.90;;;;;;5085268;28;20199;-68
2023/11/11 09:28:04;;;;;;;2.20;1.57;;;8.20;99.90;;;;;;5084695;28;20247;-67
2023/11/11 09:30:31;;;;;;;1.53;1.23;;;8.20;99.90;;;;;;5084525;28;20207;-67
2023/11/11 09:32:58;;;;;;;3.60;1.83;;;8.20;99.90;;;;;;5084786;28;20253;-67
2023/11/11 09:35:26;;;;;;;2.03;1.70;;;8.30;99.90;;;;;;5084762;28;20214;-67
2023/11/11 09:37:53;;;;;;;1.47;1.37;;;8.30;99.90;;;;;;5084579;28;20242;-67
2023/11/11 09:40:20;;;;;;;2.97;1.77;;;8.30;99.90;;;;;;5084365;28;20958;-66
2023/11/11 09:42:48;;;;;;;1.70;1.53;;;8.30;99.90;;;;;;5084910;28;20301;-67
2023/11/11 09:45:15;;;;;;;1.50;1.40;;;8.30;99.90;;;;;;5084819;28;20206;-67
2023/11/11 09:47:44;;;;;;;1.63;1.20;;;8.30;99.90;;;;;;5083996;28;20321;-67
2023/11/11 09:50:13;;;;;;;1.60;1.50;;;8.40;99.90;;;;;;5083890;28;20732;-68
2023/11/11 09:52:43;;;;;;;3.40;1.83;;;8.50;99.90;;;;;;5084589;28;20233;-67
2023/11/11 09:55:13;;;;;;;1.70;1.33;;;8.50;99.90;;;;;;5084523;28;20268;-68
2023/11/11 09:57:40;;;;;;;1.93;1.60;;;8.60;99.90;;;;;;5085022;28;20703;-67
2023/11/11 10:00:10;;;;;;;1.77;1.63;;;8.60;99.90;;;;;;5088529;28;20245;-67
2023/11/11 10:02:37;;;;;;;2.27;1.43;;;8.70;99.90;;;;;;5088878;28;20221;-72
2023/11/11 10:05:05;;;;;;;2.30;1.67;;;8.70;99.90;;;;;;5088233;28;20199;-67
2023/11/11 10:07:33;;;;;;;1.40;1.30;;;8.80;99.90;;;;;;5087713;28;20253;-67
2023/11/11 10:10:01;;;;;;;2.30;1.30;;;8.80;99.90;;;;;;5088354;28;20207;-67
2023/11/11 10:12:30;;;;;;;4.93;1.50;;;8.80;99.90;;;;;;5081251;28;20331;-67
2023/11/11 10:15:01;;;;;;;1.80;1.50;;;9.00;99.90;;;;;;5086319;28;20276;-66
2023/11/11 10:17:28;;;;;;;1.47;1.37;;;9.30;99.90;;;;;;5086212;28;20195;-68
2023/11/11 10:19:57;;;;;;;2.37;1.50;;;9.30;99.90;;;;;;5086525;28;20233;-67
2023/11/11 10:22:25;;;;;;;1.77;1.60;;;9.30;99.90;;;;;;5085991;28;20660;-67
2023/11/11 10:24:52;;;;;;;1.73;1.50;;;9.30;99.90;;;;;;5086612;28;20290;-69
2023/11/11 10:27:20;;;;;;;1.73;1.50;;;9.30;99.90;;;;;;5086121;28;20254;-67
2023/11/11 10:29:48;;;;;;;2.27;1.47;;;9.40;99.90;;;;;;5086261;28;20203;-67
2023/11/11 10:32:17;;;;;;;3.00;1.70;;;9.40;99.90;;;;;;5086098;28;20203;-67
2023/11/11 10:34:44;;;;;;;1.30;1.20;;;9.40;99.90;;;;;;5086548;28;20687;-67
2023/11/11 10:37:11;;;;;;;1.63;1.53;;;9.40;99.90;;;;;;5085896;28;20225;-67
2023/11/11 10:39:39;;;;;;;2.03;1.50;;;9.40;99.90;;;;;;5086394;28;20206;-67
2023/11/11 10:42:06;;;;;;;1.53;1.50;;;9.30;99.90;;;;;;5086136;28;20636;-67
2023/11/11 10:44:34;;;;;;;1.80;1.70;;;9.30;99.90;;;;;;5085955;28;20307;-67
2023/11/11 10:47:02;;;;;;;1.90;1.77;;;9.30;99.90;;;;;;5085123;28;20892;-67
2023/11/11 10:49:29;;;;;;;2.07;1.87;;;9.20;99.90;;;;;;5087031;28;20207;-67
2023/11/11 10:51:58;;;;;;;1.70;1.60;;;9.20;99.90;;;;;;5087072;28;20296;-68
2023/11/11 10:54:26;;;;;;;1.87;1.77;;;9.20;99.90;;;;;;5082660;28;20656;-67
2023/11/11 10:56:54;;;;;;;2.53;1.83;;;9.20;99.90;;;;;;5074746;28;20561;-67
2023/11/11 10:59:24;;;;;;;3.10;2.10;;;9.10;99.90;;;;;;5080805;28;20569;-67
2023/11/11 11:01:54;;;;;;;3.27;2.10;;;9.00;99.90;;;;;;5086231;28;20616;-67
2023/11/11 11:04:25;;;;;;;2.47;2.00;;;8.80;99.90;;;;;;5086800;28;20726;-67
2023/11/11 11:07:03;;;;;;;3.67;2.57;;;8.80;99.90;;;;;;5086495;28;20322;-68
2023/11/11 11:09:38;;;;;;;2.47;2.27;;;8.80;99.90;;;;;;5080494;28;20206;-68
2023/11/11 11:12:15;;;;;;;4.40;2.40;;;8.90;99.90;;;;;;5086475;28;20543;-68
2023/11/11 11:14:50;;;;;;;3.77;2.00;;;8.90;99.90;;;;;;5086665;28;20182;-67
2023/11/11 11:17:18;;;;;;;5.07;2.30;;;9.00;99.90;;;;;;5083359;28;20684;-67
2023/11/11 11:19:52;;;;;;;3.60;2.27;;;9.10;99.90;;;;;;5086923;28;20226;-67
2023/11/11 11:22:20;;;;;;;2.77;2.20;;;9.20;99.90;;;;;;5081031;28;20208;-67
2023/11/11 11:24:47;;;;;;;2.77;1.60;;;9.50;99.90;;;;;;5084791;28;20222;-67
2023/11/11 11:27:14;;;;;;;2.00;1.90;;;9.90;99.90;;;;;;5086342;28;20234;-67
2023/11/11 11:29:41;;;;;;;4.13;2.40;;;10.10;99.90;;;;;;5087195;28;20350;-67
2023/11/11 11:32:09;;;;;;;2.63;1.70;;;10.50;99.90;;;;;;5076697;28;20568;-67
2023/11/11 11:34:38;;;;;;;1.93;1.73;;;10.70;99.90;;;;;;5085469;28;20785;-67
2023/11/11 11:37:09;;;;;;;4.40;2.07;;;10.80;99.90;;;;;;5085807;28;20210;-67
2023/11/11 11:39:44;;;;;;;2.00;1.70;;;10.70;99.90;;;;;;5086946;28;20302;-67
2023/11/11 11:42:18;;;;;;;1.83;1.63;;;10.60;99.90;;;;;;5086702;28;20191;-68
2023/11/11 11:44:54;;;;;;;2.27;1.90;;;10.40;99.90;;;;;;5084095;28;20232;-67
2023/11/11 11:47:22;;;;;;;1.80;1.70;;;10.40;99.90;;;;;;5085791;28;20246;-67
2023/11/11 11:49:51;;;;;;;2.77;1.80;;;10.50;99.90;;;;;;5086760;28;20217;-67
2023/11/11 11:52:19;;;;;;;2.97;1.80;;;10.50;99.90;;;;;;5085684;28;20581;-67
2023/11/11 11:54:46;;;;;;;3.07;1.70;;;10.50;99.90;;;;;;5085758;28;20231;-67
2023/11/11 11:57:14;;;;;;;3.77;1.90;;;10.50;99.90;;;;;;5085593;28;20214;-68
2023/11/11 11:59:41;;;;;;;2.13;1.67;;;10.60;99.90;;;;;;5086080;28;20252;-67
2023/11/11 12:02:11;;;;;;;1.90;1.80;;;10.80;99.90;;;;;;5085794;28;20207;-67
2023/11/11 12:04:39;;;;;;;1.77;1.67;;;10.90;99.90;;;;;;5068667;28;20203;-67
2023/11/11 12:07:12;;;;;;;2.00;1.90;;;10.80;99.90;;;;;;5085560;28;20222;-67
2023/11/11 12:09:40;;;;;;;3.30;1.73;;;10.80;99.90;;;;;;5086327;28;20233;-67
2023/11/11 12:12:08;;;;;;;3.87;1.90;;;10.70;99.90;;;;;;5085847;28;20282;-67
2023/11/11 12:14:35;;;;;;;2.30;1.80;;;10.60;99.90;;;;;;5086236;28;20292;-67
2023/11/11 12:17:03;;;;;;;3.80;1.93;;;10.50;99.90;;;;;;5085560;28;20207;-67
2023/11/11 12:19:34;;;;;;;2.10;1.90;;;10.50;99.90;;;;;;5085987;28;20617;-68
2023/11/11 12:22:01;;;;;;;4.20;2.00;;;10.50;99.90;;;;;;5085314;28;20287;-68
2023/11/11 12:24:31;;;;;;;2.23;1.90;;;10.40;99.90;;;;;;5085952;28;20333;-67
2023/11/11 12:27:01;;;;;;;2.50;2.07;;;10.30;99.90;;;;;;5065425;28;20230;-67
2023/11/11 12:29:28;;;;;;;2.03;1.87;;;10.30;99.90;;;;;;5077392;28;20658;-67
2023/11/11 12:31:57;;;;;;;10.13;2.60;;;10.20;99.90;;;;;;5085320;28;20221;-67
2023/11/11 12:34:26;;;;;;;3.70;3.17;;;10.10;99.90;;;;;;5085005;28;20234;-67
2023/11/11 12:36:54;;;;;;;3.17;2.87;;;10.10;99.90;;;;;;5085508;28;20294;-67
2023/11/11 12:39:20;;;;;;;3.60;3.10;;;9.90;99.90;;;;;;5084627;28;20206;-67
2023/11/11 12:41:50;;;;;;;4.70;2.70;;;9.80;99.90;;;;;;5085154;28;20665;-67
2023/11/11 12:44:18;;;;;;;4.33;2.90;;;9.70;99.90;;;;;;5084970;28;20284;-67
2023/11/11 12:46:46;;;;;;;6.67;2.60;;;9.60;99.90;;;;;;5084752;28;20289;-66
2023/11/11 12:49:15;;;;;;;4.90;2.30;;;9.60;99.90;;;;;;5083392;28;20207;-67
2023/11/11 12:51:42;;;;;;;2.73;2.13;;;9.60;99.90;;;;;;5085372;28;20217;-67
2023/11/11 12:54:10;;;;;;;5.23;3.67;;;9.60;99.90;;;;;;5085285;28;20209;-67
2023/11/11 12:56:48;;;;;;;5.87;2.70;;;9.50;99.90;;;;;;5085557;28;20294;-67